sensor_id;sensor_type;location;lat;lon;timestamp;P1;durP1;ratioP1;P2;durP2;ratioP2
15067;SDS011;7633;60.024;18.770;2022-11-14T00:02:08;3.93;;;1.70;;
15067;SDS011;7633;60.024;18.770;2022-11-14T00:04:34;2.60;;;1.70;;
15067;SDS011;7633;60.024;18.770;2022-11-14T00:06:59;4.73;;;1.80;;
15067;SDS011;7633;60.024;18.770;2022-11-14T00:09:25;4.43;;;1.90;;
15067;SDS011;7633;60.024;18.770;2022-11-14T00:11:51;8.63;;;2.20;;
15067;SDS011;7633;60.024;18.770;2022-11-14T00:14:18;7.17;;;2.40;;
15067;SDS011;7633;60.024;18.770;2022-11-14T00:16:47;48.73;;;6.37;;
15067;SDS011;7633;60.024;18.770;2022-11-14T00:19:12;23.50;;;3.30;;
15067;SDS011;7633;60.024;18.770;2022-11-14T00:21:38;10.47;;;2.43;;
15067;SDS011;7633;60.024;18.770;2022-11-14T00:24:04;7.67;;;2.63;;
15067;SDS011;7633;60.024;18.770;2022-11-14T00:26:31;8.50;;;2.90;;
15067;SDS011;7633;60.024;18.770;2022-11-14T00:29:02;1.77;;;1.20;;
15067;SDS011;7633;60.024;18.770;2022-11-14T00:31:33;5.70;;;1.70;;
15067;SDS011;7633;60.024;18.770;2022-11-14T00:34:01;7.97;;;2.50;;
15067;SDS011;7633;60.024;18.770;2022-11-14T00:36:26;6.53;;;2.07;;
15067;SDS011;7633;60.024;18.770;2022-11-14T00:38:52;3.57;;;1.73;;
15067;SDS011;7633;60.024;18.770;2022-11-14T00:41:18;8.17;;;2.40;;
15067;SDS011;7633;60.024;18.770;2022-11-14T00:43:44;4.30;;;2.20;;
15067;SDS011;7633;60.024;18.770;2022-11-14T00:46:12;2.43;;;2.00;;
15067;SDS011;7633;60.024;18.770;2022-11-14T00:48:40;3.03;;;1.53;;
15067;SDS011;7633;60.024;18.770;2022-11-14T00:51:08;2.17;;;1.40;;
15067;SDS011;7633;60.024;18.770;2022-11-14T00:53:38;1.77;;;0.93;;
15067;SDS011;7633;60.024;18.770;2022-11-14T00:56:06;1.90;;;1.60;;
15067;SDS011;7633;60.024;18.770;2022-11-14T00:58:39;3.43;;;1.97;;
15067;SDS011;7633;60.024;18.770;2022-11-14T01:01:11;1.43;;;1.10;;
15067;SDS011;7633;60.024;18.770;2022-11-14T01:03:46;3.50;;;1.50;;
15067;SDS011;7633;60.024;18.770;2022-11-14T01:06:12;1.70;;;1.43;;
15067;SDS011;7633;60.024;18.770;2022-11-14T01:08:41;3.43;;;1.30;;
15067;SDS011;7633;60.024;18.770;2022-11-14T01:11:11;1.10;;;0.90;;
15067;SDS011;7633;60.024;18.770;2022-11-14T01:13:37;1.03;;;0.93;;
15067;SDS011;7633;60.024;18.770;2022-11-14T01:16:08;2.93;;;0.70;;
15067;SDS011;7633;60.024;18.770;2022-11-14T01:18:40;2.07;;;1.37;;
15067;SDS011;7633;60.024;18.770;2022-11-14T01:21:11;1.77;;;1.40;;
15067;SDS011;7633;60.024;18.770;2022-11-14T01:23:37;2.27;;;1.37;;
15067;SDS011;7633;60.024;18.770;2022-11-14T01:26:03;0.80;;;0.80;;
15067;SDS011;7633;60.024;18.770;2022-11-14T01:28:29;1.43;;;1.33;;
15067;SDS011;7633;60.024;18.770;2022-11-14T01:30:55;1.47;;;1.10;;
15067;SDS011;7633;60.024;18.770;2022-11-14T01:33:20;1.63;;;1.20;;
15067;SDS011;7633;60.024;18.770;2022-11-14T01:35:47;1.33;;;1.13;;
15067;SDS011;7633;60.024;18.770;2022-11-14T01:38:13;2.23;;;1.57;;
15067;SDS011;7633;60.024;18.770;2022-11-14T01:40:43;2.37;;;1.40;;
15067;SDS011;7633;60.024;18.770;2022-11-14T01:48:23;5.10;;;2.50;;
15067;SDS011;7633;60.024;18.770;2022-11-14T01:50:53;1.20;;;1.10;;
15067;SDS011;7633;60.024;18.770;2022-11-14T01:53:27;2.47;;;1.40;;
15067;SDS011;7633;60.024;18.770;2022-11-14T01:56:03;1.70;;;1.60;;
15067;SDS011;7633;60.024;18.770;2022-11-14T01:58:36;0.80;;;0.70;;
15067;SDS011;7633;60.024;18.770;2022-11-14T02:01:04;1.17;;;0.80;;
15067;SDS011;7633;60.024;18.770;2022-11-14T02:03:30;1.60;;;1.00;;
15067;SDS011;7633;60.024;18.770;2022-11-14T02:05:59;4.00;;;1.70;;
15067;SDS011;7633;60.024;18.770;2022-11-14T02:08:31;3.03;;;1.20;;
15067;SDS011;7633;60.024;18.770;2022-11-14T02:10:57;1.90;;;1.13;;
15067;SDS011;7633;60.024;18.770;2022-11-14T02:13:24;1.93;;;1.40;;
15067;SDS011;7633;60.024;18.770;2022-11-14T02:15:52;2.33;;;1.67;;
15067;SDS011;7633;60.024;18.770;2022-11-14T02:18:20;1.97;;;1.23;;
15067;SDS011;7633;60.024;18.770;2022-11-14T02:20:48;2.90;;;1.50;;
15067;SDS011;7633;60.024;18.770;2022-11-14T02:23:24;1.70;;;1.60;;
15067;SDS011;7633;60.024;18.770;2022-11-14T02:25:51;2.67;;;1.30;;
15067;SDS011;7633;60.024;18.770;2022-11-14T02:28:18;2.20;;;1.37;;
15067;SDS011;7633;60.024;18.770;2022-11-14T02:30:47;2.20;;;1.67;;
15067;SDS011;7633;60.024;18.770;2022-11-14T02:33:17;2.37;;;1.67;;
15067;SDS011;7633;60.024;18.770;2022-11-14T02:35:50;1.73;;;1.50;;
15067;SDS011;7633;60.024;18.770;2022-11-14T02:38:16;3.23;;;1.80;;
15067;SDS011;7633;60.024;18.770;2022-11-14T02:40:49;1.60;;;1.40;;
15067;SDS011;7633;60.024;18.770;2022-11-14T02:43:19;2.40;;;1.40;;
15067;SDS011;7633;60.024;18.770;2022-11-14T02:45:49;2.50;;;1.60;;
15067;SDS011;7633;60.024;18.770;2022-11-14T02:48:17;4.13;;;1.77;;
15067;SDS011;7633;60.024;18.770;2022-11-14T02:50:44;2.20;;;1.60;;
15067;SDS011;7633;60.024;18.770;2022-11-14T02:53:09;3.03;;;1.87;;
15067;SDS011;7633;60.024;18.770;2022-11-14T02:55:36;3.03;;;1.43;;
15067;SDS011;7633;60.024;18.770;2022-11-14T02:58:04;2.50;;;1.60;;
15067;SDS011;7633;60.024;18.770;2022-11-14T03:00:36;2.50;;;1.70;;
15067;SDS011;7633;60.024;18.770;2022-11-14T03:03:04;2.97;;;1.90;;
15067;SDS011;7633;60.024;18.770;2022-11-14T03:05:31;2.53;;;2.00;;
15067;SDS011;7633;60.024;18.770;2022-11-14T03:08:02;2.77;;;1.70;;
15067;SDS011;7633;60.024;18.770;2022-11-14T03:10:30;19.40;;;2.37;;
15067;SDS011;7633;60.024;18.770;2022-11-14T03:12:58;3.70;;;1.47;;
15067;SDS011;7633;60.024;18.770;2022-11-14T03:15:30;2.97;;;2.07;;
15067;SDS011;7633;60.024;18.770;2022-11-14T03:17:59;3.00;;;1.63;;
15067;SDS011;7633;60.024;18.770;2022-11-14T03:20:25;2.67;;;1.83;;
15067;SDS011;7633;60.024;18.770;2022-11-14T03:22:53;3.03;;;1.80;;
15067;SDS011;7633;60.024;18.770;2022-11-14T03:25:25;2.37;;;2.00;;
15067;SDS011;7633;60.024;18.770;2022-11-14T03:27:51;3.53;;;2.00;;
15067;SDS011;7633;60.024;18.770;2022-11-14T03:30:21;2.97;;;1.90;;
15067;SDS011;7633;60.024;18.770;2022-11-14T03:32:55;3.77;;;2.07;;
15067;SDS011;7633;60.024;18.770;2022-11-14T03:35:25;5.43;;;2.37;;
15067;SDS011;7633;60.024;18.770;2022-11-14T03:37:55;3.00;;;2.10;;
15067;SDS011;7633;60.024;18.770;2022-11-14T03:40:27;3.17;;;2.03;;
15067;SDS011;7633;60.024;18.770;2022-11-14T03:42:57;6.13;;;2.00;;
15067;SDS011;7633;60.024;18.770;2022-11-14T03:45:26;3.07;;;2.40;;
15067;SDS011;7633;60.024;18.770;2022-11-14T03:48:01;3.10;;;2.10;;
15067;SDS011;7633;60.024;18.770;2022-11-14T03:50:33;2.83;;;2.37;;
15067;SDS011;7633;60.024;18.770;2022-11-14T03:53:02;4.77;;;2.57;;
15067;SDS011;7633;60.024;18.770;2022-11-14T03:55:28;3.80;;;2.30;;
15067;SDS011;7633;60.024;18.770;2022-11-14T03:57:53;2.30;;;1.87;;
15067;SDS011;7633;60.024;18.770;2022-11-14T04:00:19;2.40;;;2.00;;
15067;SDS011;7633;60.024;18.770;2022-11-14T04:02:48;3.00;;;2.20;;
15067;SDS011;7633;60.024;18.770;2022-11-14T04:05:21;2.67;;;2.23;;
15067;SDS011;7633;60.024;18.770;2022-11-14T04:07:50;4.03;;;1.97;;
15067;SDS011;7633;60.024;18.770;2022-11-14T04:10:27;3.03;;;2.20;;
15067;SDS011;7633;60.024;18.770;2022-11-14T04:12:54;2.50;;;2.30;;
15067;SDS011;7633;60.024;18.770;2022-11-14T04:15:21;3.93;;;2.30;;
15067;SDS011;7633;60.024;18.770;2022-11-14T04:17:47;6.50;;;2.47;;
15067;SDS011;7633;60.024;18.770;2022-11-14T04:20:14;9.03;;;2.87;;
15067;SDS011;7633;60.024;18.770;2022-11-14T04:22:45;34.53;;;4.80;;
15067;SDS011;7633;60.024;18.770;2022-11-14T04:25:16;4.60;;;2.53;;
15067;SDS011;7633;60.024;18.770;2022-11-14T04:27:42;7.00;;;2.47;;
15067;SDS011;7633;60.024;18.770;2022-11-14T04:30:11;5.27;;;2.47;;
15067;SDS011;7633;60.024;18.770;2022-11-14T04:32:43;4.50;;;2.13;;
15067;SDS011;7633;60.024;18.770;2022-11-14T04:35:09;4.57;;;2.53;;
15067;SDS011;7633;60.024;18.770;2022-11-14T04:37:35;4.37;;;2.50;;
15067;SDS011;7633;60.024;18.770;2022-11-14T04:40:04;4.73;;;2.27;;
15067;SDS011;7633;60.024;18.770;2022-11-14T04:42:36;2.90;;;2.20;;
15067;SDS011;7633;60.024;18.770;2022-11-14T04:45:09;4.57;;;2.20;;
15067;SDS011;7633;60.024;18.770;2022-11-14T04:47:35;5.47;;;2.10;;
15067;SDS011;7633;60.024;18.770;2022-11-14T04:50:00;2.53;;;1.90;;
15067;SDS011;7633;60.024;18.770;2022-11-14T04:52:26;3.20;;;2.13;;
15067;SDS011;7633;60.024;18.770;2022-11-14T04:54:51;2.50;;;2.13;;
15067;SDS011;7633;60.024;18.770;2022-11-14T04:57:17;2.23;;;2.00;;
15067;SDS011;7633;60.024;18.770;2022-11-14T04:59:42;2.80;;;2.43;;
15067;SDS011;7633;60.024;18.770;2022-11-14T05:02:11;2.73;;;2.33;;
15067;SDS011;7633;60.024;18.770;2022-11-14T05:04:45;4.60;;;2.33;;
15067;SDS011;7633;60.024;18.770;2022-11-14T05:07:18;4.50;;;2.70;;
15067;SDS011;7633;60.024;18.770;2022-11-14T05:09:43;5.17;;;3.13;;
15067;SDS011;7633;60.024;18.770;2022-11-14T05:12:09;3.50;;;2.57;;
15067;SDS011;7633;60.024;18.770;2022-11-14T05:14:34;3.20;;;2.60;;
15067;SDS011;7633;60.024;18.770;2022-11-14T05:17:03;2.83;;;2.33;;
15067;SDS011;7633;60.024;18.770;2022-11-14T05:19:33;3.03;;;2.60;;
15067;SDS011;7633;60.024;18.770;2022-11-14T05:21:59;4.53;;;2.73;;
15067;SDS011;7633;60.024;18.770;2022-11-14T05:24:24;3.73;;;2.60;;
15067;SDS011;7633;60.024;18.770;2022-11-14T05:26:50;3.03;;;2.30;;
15067;SDS011;7633;60.024;18.770;2022-11-14T05:29:15;3.30;;;2.30;;
15067;SDS011;7633;60.024;18.770;2022-11-14T05:31:41;2.90;;;2.13;;
15067;SDS011;7633;60.024;18.770;2022-11-14T05:34:06;3.73;;;2.27;;
15067;SDS011;7633;60.024;18.770;2022-11-14T05:36:32;2.73;;;2.23;;
15067;SDS011;7633;60.024;18.770;2022-11-14T05:38:58;3.30;;;2.37;;
15067;SDS011;7633;60.024;18.770;2022-11-14T05:41:23;3.40;;;2.10;;
15067;SDS011;7633;60.024;18.770;2022-11-14T05:43:50;3.63;;;2.20;;
15067;SDS011;7633;60.024;18.770;2022-11-14T05:46:18;1.93;;;1.70;;
15067;SDS011;7633;60.024;18.770;2022-11-14T05:48:46;2.40;;;2.20;;
15067;SDS011;7633;60.024;18.770;2022-11-14T05:51:16;2.97;;;1.80;;
15067;SDS011;7633;60.024;18.770;2022-11-14T05:53:42;3.37;;;2.30;;
15067;SDS011;7633;60.024;18.770;2022-11-14T05:56:11;3.00;;;2.70;;
15067;SDS011;7633;60.024;18.770;2022-11-14T05:58:38;3.37;;;2.30;;
15067;SDS011;7633;60.024;18.770;2022-11-14T06:01:04;3.50;;;2.60;;
15067;SDS011;7633;60.024;18.770;2022-11-14T06:03:31;4.10;;;2.93;;
15067;SDS011;7633;60.024;18.770;2022-11-14T06:05:58;4.87;;;2.87;;
15067;SDS011;7633;60.024;18.770;2022-11-14T06:08:23;3.50;;;2.10;;
15067;SDS011;7633;60.024;18.770;2022-11-14T06:10:49;3.77;;;2.50;;
15067;SDS011;7633;60.024;18.770;2022-11-14T06:13:14;4.43;;;2.40;;
15067;SDS011;7633;60.024;18.770;2022-11-14T06:15:40;2.80;;;2.40;;
15067;SDS011;7633;60.024;18.770;2022-11-14T06:18:05;5.53;;;3.27;;
15067;SDS011;7633;60.024;18.770;2022-11-14T06:20:30;3.10;;;2.50;;
15067;SDS011;7633;60.024;18.770;2022-11-14T06:22:56;3.10;;;2.37;;
15067;SDS011;7633;60.024;18.770;2022-11-14T06:25:21;3.90;;;2.10;;
15067;SDS011;7633;60.024;18.770;2022-11-14T06:27:46;4.50;;;2.50;;
15067;SDS011;7633;60.024;18.770;2022-11-14T06:30:12;3.43;;;2.33;;
15067;SDS011;7633;60.024;18.770;2022-11-14T06:32:37;3.17;;;2.80;;
15067;SDS011;7633;60.024;18.770;2022-11-14T06:35:03;3.10;;;2.43;;
15067;SDS011;7633;60.024;18.770;2022-11-14T06:37:28;3.30;;;2.30;;
15067;SDS011;7633;60.024;18.770;2022-11-14T06:39:54;2.90;;;2.03;;
15067;SDS011;7633;60.024;18.770;2022-11-14T06:42:19;3.53;;;2.70;;
15067;SDS011;7633;60.024;18.770;2022-11-14T06:44:45;4.10;;;2.40;;
15067;SDS011;7633;60.024;18.770;2022-11-14T06:47:10;3.70;;;2.63;;
15067;SDS011;7633;60.024;18.770;2022-11-14T06:49:36;4.97;;;2.80;;
15067;SDS011;7633;60.024;18.770;2022-11-14T06:52:01;4.77;;;2.93;;
15067;SDS011;7633;60.024;18.770;2022-11-14T06:54:26;3.87;;;2.93;;
15067;SDS011;7633;60.024;18.770;2022-11-14T06:56:52;4.50;;;2.63;;
15067;SDS011;7633;60.024;18.770;2022-11-14T06:59:17;3.20;;;2.50;;
15067;SDS011;7633;60.024;18.770;2022-11-14T07:01:43;4.40;;;3.33;;
15067;SDS011;7633;60.024;18.770;2022-11-14T07:04:08;4.20;;;2.33;;
15067;SDS011;7633;60.024;18.770;2022-11-14T07:06:34;3.80;;;2.90;;
15067;SDS011;7633;60.024;18.770;2022-11-14T07:08:59;5.07;;;3.10;;
15067;SDS011;7633;60.024;18.770;2022-11-14T07:11:25;6.17;;;3.07;;
15067;SDS011;7633;60.024;18.770;2022-11-14T07:14:00;6.10;;;2.90;;
15067;SDS011;7633;60.024;18.770;2022-11-14T07:16:27;5.53;;;3.27;;
15067;SDS011;7633;60.024;18.770;2022-11-14T07:18:58;4.77;;;2.80;;
15067;SDS011;7633;60.024;18.770;2022-11-14T07:21:25;2.97;;;2.67;;
15067;SDS011;7633;60.024;18.770;2022-11-14T07:23:50;3.93;;;2.60;;
15067;SDS011;7633;60.024;18.770;2022-11-14T07:26:16;2.60;;;2.07;;
15067;SDS011;7633;60.024;18.770;2022-11-14T07:28:42;2.37;;;2.07;;
15067;SDS011;7633;60.024;18.770;2022-11-14T07:31:08;3.30;;;2.27;;
15067;SDS011;7633;60.024;18.770;2022-11-14T07:33:34;2.70;;;2.20;;
15067;SDS011;7633;60.024;18.770;2022-11-14T07:36:00;2.90;;;1.97;;
15067;SDS011;7633;60.024;18.770;2022-11-14T07:38:25;2.73;;;2.20;;
15067;SDS011;7633;60.024;18.770;2022-11-14T07:40:51;2.77;;;1.70;;
15067;SDS011;7633;60.024;18.770;2022-11-14T07:43:17;1.87;;;1.57;;
15067;SDS011;7633;60.024;18.770;2022-11-14T07:45:42;1.67;;;1.50;;
15067;SDS011;7633;60.024;18.770;2022-11-14T07:48:07;2.53;;;1.60;;
15067;SDS011;7633;60.024;18.770;2022-11-14T07:50:33;1.60;;;1.37;;
15067;SDS011;7633;60.024;18.770;2022-11-14T07:52:58;1.37;;;1.27;;
15067;SDS011;7633;60.024;18.770;2022-11-14T07:55:24;1.73;;;1.30;;
15067;SDS011;7633;60.024;18.770;2022-11-14T07:57:53;1.90;;;1.30;;
15067;SDS011;7633;60.024;18.770;2022-11-14T08:00:19;2.53;;;1.40;;
15067;SDS011;7633;60.024;18.770;2022-11-14T08:02:45;2.47;;;1.40;;
15067;SDS011;7633;60.024;18.770;2022-11-14T08:05:10;1.30;;;1.20;;
15067;SDS011;7633;60.024;18.770;2022-11-14T08:07:35;1.50;;;1.40;;
15067;SDS011;7633;60.024;18.770;2022-11-14T08:10:01;2.17;;;1.20;;
15067;SDS011;7633;60.024;18.770;2022-11-14T08:12:26;1.67;;;1.30;;
15067;SDS011;7633;60.024;18.770;2022-11-14T08:14:52;2.47;;;1.23;;
15067;SDS011;7633;60.024;18.770;2022-11-14T08:17:17;1.60;;;1.30;;
15067;SDS011;7633;60.024;18.770;2022-11-14T08:19:44;2.47;;;1.10;;
15067;SDS011;7633;60.024;18.770;2022-11-14T08:22:09;2.17;;;1.10;;
15067;SDS011;7633;60.024;18.770;2022-11-14T08:24:34;1.80;;;1.30;;
15067;SDS011;7633;60.024;18.770;2022-11-14T08:27:00;1.40;;;1.30;;
15067;SDS011;7633;60.024;18.770;2022-11-14T08:29:25;1.20;;;1.00;;
15067;SDS011;7633;60.024;18.770;2022-11-14T08:31:51;2.30;;;1.13;;
15067;SDS011;7633;60.024;18.770;2022-11-14T08:34:16;0.63;;;0.63;;
15067;SDS011;7633;60.024;18.770;2022-11-14T08:36:41;1.03;;;0.80;;
15067;SDS011;7633;60.024;18.770;2022-11-14T08:39:07;1.50;;;1.00;;
15067;SDS011;7633;60.024;18.770;2022-11-14T08:41:32;1.17;;;0.93;;
15067;SDS011;7633;60.024;18.770;2022-11-14T08:43:57;0.90;;;0.87;;
15067;SDS011;7633;60.024;18.770;2022-11-14T08:46:23;1.10;;;0.73;;
15067;SDS011;7633;60.024;18.770;2022-11-14T08:48:48;0.90;;;0.73;;
15067;SDS011;7633;60.024;18.770;2022-11-14T08:51:14;0.90;;;0.70;;
15067;SDS011;7633;60.024;18.770;2022-11-14T08:53:39;1.13;;;0.83;;
15067;SDS011;7633;60.024;18.770;2022-11-14T08:56:05;0.90;;;0.80;;
15067;SDS011;7633;60.024;18.770;2022-11-14T08:58:31;0.70;;;0.63;;
15067;SDS011;7633;60.024;18.770;2022-11-14T09:01:03;0.80;;;0.80;;
15067;SDS011;7633;60.024;18.770;2022-11-14T09:03:29;0.73;;;0.60;;
15067;SDS011;7633;60.024;18.770;2022-11-14T09:05:54;0.60;;;0.60;;
15067;SDS011;7633;60.024;18.770;2022-11-14T09:08:20;1.43;;;0.53;;
15067;SDS011;7633;60.024;18.770;2022-11-14T09:10:45;0.37;;;0.33;;
15067;SDS011;7633;60.024;18.770;2022-11-14T09:13:11;0.20;;;0.20;;
15067;SDS011;7633;60.024;18.770;2022-11-14T09:15:36;0.70;;;0.30;;
15067;SDS011;7633;60.024;18.770;2022-11-14T09:18:02;0.33;;;0.30;;
15067;SDS011;7633;60.024;18.770;2022-11-14T09:20:27;0.50;;;0.40;;
15067;SDS011;7633;60.024;18.770;2022-11-14T09:23:00;0.37;;;0.37;;
15067;SDS011;7633;60.024;18.770;2022-11-14T09:25:26;0.30;;;0.30;;
15067;SDS011;7633;60.024;18.770;2022-11-14T09:27:52;0.50;;;0.50;;
15067;SDS011;7633;60.024;18.770;2022-11-14T09:30:17;0.57;;;0.53;;
15067;SDS011;7633;60.024;18.770;2022-11-14T09:32:43;0.53;;;0.50;;
15067;SDS011;7633;60.024;18.770;2022-11-14T09:35:08;0.20;;;0.20;;
15067;SDS011;7633;60.024;18.770;2022-11-14T09:37:34;0.80;;;0.57;;
15067;SDS011;7633;60.024;18.770;2022-11-14T09:39:59;0.93;;;0.80;;
15067;SDS011;7633;60.024;18.770;2022-11-14T09:45:00;0.50;;;0.50;;
15067;SDS011;7633;60.024;18.770;2022-11-14T09:47:32;0.60;;;0.60;;
15067;SDS011;7633;60.024;18.770;2022-11-14T09:50:06;0.60;;;0.60;;
15067;SDS011;7633;60.024;18.770;2022-11-14T09:55:02;0.30;;;0.30;;
15067;SDS011;7633;60.024;18.770;2022-11-14T09:57:29;1.03;;;0.60;;
15067;SDS011;7633;60.024;18.770;2022-11-14T09:59:54;0.73;;;0.63;;
15067;SDS011;7633;60.024;18.770;2022-11-14T10:02:30;0.50;;;0.50;;
15067;SDS011;7633;60.024;18.770;2022-11-14T10:15:26;0.80;;;0.70;;
15067;SDS011;7633;60.024;18.770;2022-11-14T10:22:52;0.40;;;0.40;;
15067;SDS011;7633;60.024;18.770;2022-11-14T10:30:21;0.57;;;0.43;;
15067;SDS011;7633;60.024;18.770;2022-11-14T10:32:50;0.50;;;0.50;;
15067;SDS011;7633;60.024;18.770;2022-11-14T10:35:18;1.57;;;0.70;;
15067;SDS011;7633;60.024;18.770;2022-11-14T10:42:39;0.60;;;0.60;;
15067;SDS011;7633;60.024;18.770;2022-11-14T10:47:45;0.80;;;0.80;;
15067;SDS011;7633;60.024;18.770;2022-11-14T10:50:20;0.73;;;0.73;;
15067;SDS011;7633;60.024;18.770;2022-11-14T10:52:46;1.27;;;1.00;;
15067;SDS011;7633;60.024;18.770;2022-11-14T10:55:13;1.53;;;0.70;;
15067;SDS011;7633;60.024;18.770;2022-11-14T10:57:39;0.57;;;0.43;;
15067;SDS011;7633;60.024;18.770;2022-11-14T11:00:12;0.57;;;0.57;;
15067;SDS011;7633;60.024;18.770;2022-11-14T11:02:51;0.60;;;0.60;;
15067;SDS011;7633;60.024;18.770;2022-11-14T11:05:18;0.70;;;0.70;;
15067;SDS011;7633;60.024;18.770;2022-11-14T11:07:45;0.33;;;0.30;;
15067;SDS011;7633;60.024;18.770;2022-11-14T11:10:31;0.80;;;0.70;;
15067;SDS011;7633;60.024;18.770;2022-11-14T11:13:29;0.93;;;0.80;;
15067;SDS011;7633;60.024;18.770;2022-11-14T11:15:55;0.70;;;0.70;;
15067;SDS011;7633;60.024;18.770;2022-11-14T11:18:31;0.50;;;0.50;;
15067;SDS011;7633;60.024;18.770;2022-11-14T11:23:26;0.80;;;0.60;;
15067;SDS011;7633;60.024;18.770;2022-11-14T11:25:58;0.53;;;0.40;;
15067;SDS011;7633;60.024;18.770;2022-11-14T11:28:25;0.80;;;0.77;;
15067;SDS011;7633;60.024;18.770;2022-11-14T11:30:56;0.70;;;0.70;;
15067;SDS011;7633;60.024;18.770;2022-11-14T11:33:23;0.93;;;0.63;;
15067;SDS011;7633;60.024;18.770;2022-11-14T11:35:49;0.47;;;0.47;;
15067;SDS011;7633;60.024;18.770;2022-11-14T11:38:18;0.70;;;0.70;;
15067;SDS011;7633;60.024;18.770;2022-11-14T11:40:44;0.70;;;0.70;;
15067;SDS011;7633;60.024;18.770;2022-11-14T11:45:40;0.87;;;0.67;;
15067;SDS011;7633;60.024;18.770;2022-11-14T11:48:33;0.40;;;0.30;;
15067;SDS011;7633;60.024;18.770;2022-11-14T11:50:53;0.83;;;0.83;;
15067;SDS011;7633;60.024;18.770;2022-11-14T11:53:41;0.50;;;0.50;;
15067;SDS011;7633;60.024;18.770;2022-11-14T11:56:06;0.17;;;0.17;;
15067;SDS011;7633;60.024;18.770;2022-11-14T11:58:40;0.50;;;0.50;;
15067;SDS011;7633;60.024;18.770;2022-11-14T12:01:10;0.80;;;0.80;;
15067;SDS011;7633;60.024;18.770;2022-11-14T12:03:36;0.60;;;0.50;;
15067;SDS011;7633;60.024;18.770;2022-11-14T12:06:04;1.23;;;1.00;;
15067;SDS011;7633;60.024;18.770;2022-11-14T12:08:34;1.70;;;0.87;;
15067;SDS011;7633;60.024;18.770;2022-11-14T12:11:02;0.73;;;0.73;;
15067;SDS011;7633;60.024;18.770;2022-11-14T12:13:36;0.80;;;0.70;;
15067;SDS011;7633;60.024;18.770;2022-11-14T12:21:22;1.13;;;0.73;;
15067;SDS011;7633;60.024;18.770;2022-11-14T12:23:55;1.03;;;0.93;;
15067;SDS011;7633;60.024;18.770;2022-11-14T12:31:37;1.40;;;1.07;;
15067;SDS011;7633;60.024;18.770;2022-11-14T12:34:06;1.23;;;1.07;;
15067;SDS011;7633;60.024;18.770;2022-11-14T12:36:36;1.20;;;1.03;;
15067;SDS011;7633;60.024;18.770;2022-11-14T12:39:03;1.10;;;1.00;;
15067;SDS011;7633;60.024;18.770;2022-11-14T12:41:32;1.10;;;1.00;;
15067;SDS011;7633;60.024;18.770;2022-11-14T12:54:55;1.03;;;0.93;;
15067;SDS011;7633;60.024;18.770;2022-11-14T12:57:29;1.37;;;1.23;;
15067;SDS011;7633;60.024;18.770;2022-11-14T13:00:14;1.27;;;1.17;;
15067;SDS011;7633;60.024;18.770;2022-11-14T13:10:56;1.57;;;1.00;;
15067;SDS011;7633;60.024;18.770;2022-11-14T13:13:22;1.57;;;1.30;;
15067;SDS011;7633;60.024;18.770;2022-11-14T13:16:20;1.40;;;1.30;;
15067;SDS011;7633;60.024;18.770;2022-11-14T13:29:50;1.30;;;1.00;;
15067;SDS011;7633;60.024;18.770;2022-11-14T13:32:58;2.30;;;1.20;;
15067;SDS011;7633;60.024;18.770;2022-11-14T13:35:04;0.80;;;0.80;;
15067;SDS011;7633;60.024;18.770;2022-11-14T13:40:27;0.80;;;0.80;;
15067;SDS011;7633;60.024;18.770;2022-11-14T13:43:05;1.13;;;1.03;;
15067;SDS011;7633;60.024;18.770;2022-11-14T13:50:54;0.90;;;0.90;;
15067;SDS011;7633;60.024;18.770;2022-11-14T13:53:22;2.10;;;1.57;;
15067;SDS011;7633;60.024;18.770;2022-11-14T14:03:49;1.17;;;1.07;;
15067;SDS011;7633;60.024;18.770;2022-11-14T14:13:50;1.30;;;1.10;;
15067;SDS011;7633;60.024;18.770;2022-11-14T14:16:21;1.20;;;1.10;;
15067;SDS011;7633;60.024;18.770;2022-11-14T14:26:34;1.20;;;1.10;;
15067;SDS011;7633;60.024;18.770;2022-11-14T14:31:45;1.40;;;0.90;;
15067;SDS011;7633;60.024;18.770;2022-11-14T14:36:53;0.93;;;0.83;;
15067;SDS011;7633;60.024;18.770;2022-11-14T14:39:19;1.67;;;1.20;;
15067;SDS011;7633;60.024;18.770;2022-11-14T14:41:45;1.30;;;0.90;;
15067;SDS011;7633;60.024;18.770;2022-11-14T14:44:21;1.20;;;0.80;;
15067;SDS011;7633;60.024;18.770;2022-11-14T14:46:47;0.83;;;0.70;;
15067;SDS011;7633;60.024;18.770;2022-11-14T14:49:17;1.10;;;0.90;;
15067;SDS011;7633;60.024;18.770;2022-11-14T14:51:44;1.00;;;0.90;;
15067;SDS011;7633;60.024;18.770;2022-11-14T14:54:19;1.03;;;0.93;;
15067;SDS011;7633;60.024;18.770;2022-11-14T14:56:57;0.97;;;0.97;;
15067;SDS011;7633;60.024;18.770;2022-11-14T14:59:29;1.23;;;0.90;;
15067;SDS011;7633;60.024;18.770;2022-11-14T15:01:57;1.53;;;1.10;;
15067;SDS011;7633;60.024;18.770;2022-11-14T15:04:27;2.30;;;1.20;;
15067;SDS011;7633;60.024;18.770;2022-11-14T15:06:53;1.00;;;0.90;;
15067;SDS011;7633;60.024;18.770;2022-11-14T15:09:26;1.70;;;1.00;;
15067;SDS011;7633;60.024;18.770;2022-11-14T15:11:59;1.57;;;1.40;;
15067;SDS011;7633;60.024;18.770;2022-11-14T15:14:30;1.07;;;0.97;;
15067;SDS011;7633;60.024;18.770;2022-11-14T15:17:04;1.63;;;1.53;;
15067;SDS011;7633;60.024;18.770;2022-11-14T15:19:39;1.67;;;1.20;;
15067;SDS011;7633;60.024;18.770;2022-11-14T15:24:39;1.27;;;1.10;;
15067;SDS011;7633;60.024;18.770;2022-11-14T15:27:10;0.73;;;0.70;;
15067;SDS011;7633;60.024;18.770;2022-11-14T15:29:47;0.90;;;0.80;;
15067;SDS011;7633;60.024;18.770;2022-11-14T15:32:21;0.40;;;0.40;;
15067;SDS011;7633;60.024;18.770;2022-11-14T15:35:09;1.00;;;0.80;;
15067;SDS011;7633;60.024;18.770;2022-11-14T15:40:35;1.10;;;0.60;;
15067;SDS011;7633;60.024;18.770;2022-11-14T15:45:47;0.90;;;0.70;;
15067;SDS011;7633;60.024;18.770;2022-11-14T15:48:17;0.50;;;0.50;;
15067;SDS011;7633;60.024;18.770;2022-11-14T15:50:48;0.70;;;0.70;;
15067;SDS011;7633;60.024;18.770;2022-11-14T15:53:20;0.60;;;0.60;;
15067;SDS011;7633;60.024;18.770;2022-11-14T15:55:49;1.00;;;0.70;;
15067;SDS011;7633;60.024;18.770;2022-11-14T15:58:19;1.13;;;0.90;;
15067;SDS011;7633;60.024;18.770;2022-11-14T16:00:51;1.00;;;0.80;;
15067;SDS011;7633;60.024;18.770;2022-11-14T16:03:21;1.23;;;1.07;;
15067;SDS011;7633;60.024;18.770;2022-11-14T16:05:53;1.00;;;0.90;;
15067;SDS011;7633;60.024;18.770;2022-11-14T16:08:23;1.00;;;0.80;;
15067;SDS011;7633;60.024;18.770;2022-11-14T16:10:54;1.50;;;1.03;;
15067;SDS011;7633;60.024;18.770;2022-11-14T16:13:24;2.33;;;1.50;;
15067;SDS011;7633;60.024;18.770;2022-11-14T16:15:58;2.43;;;0.73;;
15067;SDS011;7633;60.024;18.770;2022-11-14T16:18:25;0.70;;;0.70;;
15067;SDS011;7633;60.024;18.770;2022-11-14T16:20:51;0.47;;;0.47;;
15067;SDS011;7633;60.024;18.770;2022-11-14T16:23:17;1.47;;;0.80;;
15067;SDS011;7633;60.024;18.770;2022-11-14T16:25:44;0.70;;;0.70;;
15067;SDS011;7633;60.024;18.770;2022-11-14T16:28:14;0.83;;;0.83;;
15067;SDS011;7633;60.024;18.770;2022-11-14T16:30:40;0.87;;;0.87;;
15067;SDS011;7633;60.024;18.770;2022-11-14T16:33:06;0.60;;;0.60;;
15067;SDS011;7633;60.024;18.770;2022-11-14T16:35:33;0.80;;;0.80;;
15067;SDS011;7633;60.024;18.770;2022-11-14T16:38:01;1.00;;;0.87;;
15067;SDS011;7633;60.024;18.770;2022-11-14T16:40:27;0.87;;;0.80;;
15067;SDS011;7633;60.024;18.770;2022-11-14T16:42:56;2.00;;;1.20;;
15067;SDS011;7633;60.024;18.770;2022-11-14T16:45:27;0.70;;;0.70;;
15067;SDS011;7633;60.024;18.770;2022-11-14T16:47:55;0.80;;;0.77;;
15067;SDS011;7633;60.024;18.770;2022-11-14T16:50:25;0.67;;;0.67;;
15067;SDS011;7633;60.024;18.770;2022-11-14T16:52:51;0.80;;;0.77;;
15067;SDS011;7633;60.024;18.770;2022-11-14T16:55:18;0.60;;;0.60;;
15067;SDS011;7633;60.024;18.770;2022-11-14T16:57:44;0.87;;;0.80;;
15067;SDS011;7633;60.024;18.770;2022-11-14T17:00:13;1.33;;;0.60;;
15067;SDS011;7633;60.024;18.770;2022-11-14T17:02:43;0.60;;;0.60;;
15067;SDS011;7633;60.024;18.770;2022-11-14T17:05:09;0.40;;;0.37;;